sensor_id;sensor_type;location;lat;lon;timestamp;pressure;altitude;pressure_sealevel;temperature
20733;BMP180;10527;52.124;5.196;2023-04-03T00:01:20;102929.00;;;17.10
20733;BMP180;10527;52.124;5.196;2023-04-03T00:03:47;102934.00;;;17.00
20733;BMP180;10527;52.124;5.196;2023-04-03T00:06:14;102937.00;;;17.00
20733;BMP180;10527;52.124;5.196;2023-04-03T00:08:41;102936.00;;;17.00
20733;BMP180;10527;52.124;5.196;2023-04-03T00:11:10;102938.00;;;17.00
20733;BMP180;10527;52.124;5.196;2023-04-03T00:13:39;102934.00;;;16.90
20733;BMP180;10527;52.124;5.196;2023-04-03T00:16:09;102943.00;;;16.90
20733;BMP180;10527;52.124;5.196;2023-04-03T00:18:39;102936.00;;;16.90
20733;BMP180;10527;52.124;5.196;2023-04-03T00:21:08;102936.00;;;16.80
20733;BMP180;10527;52.124;5.196;2023-04-03T00:23:36;102934.00;;;16.80
20733;BMP180;10527;52.124;5.196;2023-04-03T00:26:03;102944.00;;;16.80
20733;BMP180;10527;52.124;5.196;2023-04-03T00:28:30;102948.00;;;16.70
20733;BMP180;10527;52.124;5.196;2023-04-03T00:30:57;102942.00;;;16.70
20733;BMP180;10527;52.124;5.196;2023-04-03T00:33:24;102944.00;;;16.70
20733;BMP180;10527;52.124;5.196;2023-04-03T00:35:52;102947.00;;;16.70
20733;BMP180;10527;52.124;5.196;2023-04-03T00:38:19;102942.00;;;16.70
20733;BMP180;10527;52.124;5.196;2023-04-03T00:40:48;102947.00;;;16.70
20733;BMP180;10527;52.124;5.196;2023-04-03T00:43:24;102942.00;;;16.60
20733;BMP180;10527;52.124;5.196;2023-04-03T00:45:58;102945.00;;;16.60
20733;BMP180;10527;52.124;5.196;2023-04-03T00:51:11;102942.00;;;16.60
20733;BMP180;10527;52.124;5.196;2023-04-03T00:54:07;102948.00;;;16.50
20733;BMP180;10527;52.124;5.196;2023-04-03T00:56:37;102954.00;;;16.50
20733;BMP180;10527;52.124;5.196;2023-04-03T00:59:15;102948.00;;;16.50
20733;BMP180;10527;52.124;5.196;2023-04-03T01:01:44;102961.00;;;16.50
20733;BMP180;10527;52.124;5.196;2023-04-03T01:07:17;102950.00;;;16.40
20733;BMP180;10527;52.124;5.196;2023-04-03T01:09:47;102965.00;;;16.40
20733;BMP180;10527;52.124;5.196;2023-04-03T01:12:28;102949.00;;;16.40
20733;BMP180;10527;52.124;5.196;2023-04-03T01:15:06;102969.00;;;16.40
20733;BMP180;10527;52.124;5.196;2023-04-03T01:17:37;102959.00;;;16.40
20733;BMP180;10527;52.124;5.196;2023-04-03T01:25:33;102968.00;;;16.30
20733;BMP180;10527;52.124;5.196;2023-04-03T01:28:01;102967.00;;;16.30
20733;BMP180;10527;52.124;5.196;2023-04-03T01:33:26;102953.00;;;16.20
20733;BMP180;10527;52.124;5.196;2023-04-03T01:35:53;102956.00;;;16.20
20733;BMP180;10527;52.124;5.196;2023-04-03T01:38:22;102956.00;;;16.20
20733;BMP180;10527;52.124;5.196;2023-04-03T01:40:49;102968.00;;;16.20
20733;BMP180;10527;52.124;5.196;2023-04-03T01:43:16;102949.00;;;16.20
20733;BMP180;10527;52.124;5.196;2023-04-03T01:45:43;102956.00;;;16.20
20733;BMP180;10527;52.124;5.196;2023-04-03T01:48:10;102953.00;;;16.10
20733;BMP180;10527;52.124;5.196;2023-04-03T01:50:37;102962.00;;;16.10
20733;BMP180;10527;52.124;5.196;2023-04-03T01:53:04;102955.00;;;16.10
20733;BMP180;10527;52.124;5.196;2023-04-03T01:55:31;102955.00;;;16.10
20733;BMP180;10527;52.124;5.196;2023-04-03T01:57:58;102952.00;;;16.00
20733;BMP180;10527;52.124;5.196;2023-04-03T02:00:25;102966.00;;;16.00
20733;BMP180;10527;52.124;5.196;2023-04-03T02:02:53;102961.00;;;16.00
20733;BMP180;10527;52.124;5.196;2023-04-03T02:05:21;102957.00;;;15.90
20733;BMP180;10527;52.124;5.196;2023-04-03T02:07:48;102963.00;;;15.90
20733;BMP180;10527;52.124;5.196;2023-04-03T02:10:15;102969.00;;;15.90
20733;BMP180;10527;52.124;5.196;2023-04-03T02:12:42;102972.00;;;15.90
20733;BMP180;10527;52.124;5.196;2023-04-03T02:15:09;102972.00;;;15.80
20733;BMP180;10527;52.124;5.196;2023-04-03T02:17:36;102976.00;;;15.80
20733;BMP180;10527;52.124;5.196;2023-04-03T02:20:04;102975.00;;;15.80
20733;BMP180;10527;52.124;5.196;2023-04-03T02:22:31;102968.00;;;15.80
20733;BMP180;10527;52.124;5.196;2023-04-03T02:24:58;102977.00;;;15.70
20733;BMP180;10527;52.124;5.196;2023-04-03T02:27:25;102968.00;;;15.70
20733;BMP180;10527;52.124;5.196;2023-04-03T02:29:52;102965.00;;;15.70
20733;BMP180;10527;52.124;5.196;2023-04-03T02:32:19;102968.00;;;15.70
20733;BMP180;10527;52.124;5.196;2023-04-03T02:34:45;102973.00;;;15.70
20733;BMP180;10527;52.124;5.196;2023-04-03T02:37:12;102964.00;;;15.60
20733;BMP180;10527;52.124;5.196;2023-04-03T02:39:39;102976.00;;;15.60
20733;BMP180;10527;52.124;5.196;2023-04-03T02:42:06;102966.00;;;15.60
20733;BMP180;10527;52.124;5.196;2023-04-03T02:44:34;102971.00;;;15.60
20733;BMP180;10527;52.124;5.196;2023-04-03T02:47:02;102984.00;;;15.60
20733;BMP180;10527;52.124;5.196;2023-04-03T02:49:29;102984.00;;;15.50
20733;BMP180;10527;52.124;5.196;2023-04-03T02:51:56;102979.00;;;15.50
20733;BMP180;10527;52.124;5.196;2023-04-03T02:54:23;102983.00;;;15.50
20733;BMP180;10527;52.124;5.196;2023-04-03T02:56:54;102984.00;;;15.50
20733;BMP180;10527;52.124;5.196;2023-04-03T02:59:21;102989.00;;;15.50
20733;BMP180;10527;52.124;5.196;2023-04-03T03:01:48;102986.00;;;15.40
20733;BMP180;10527;52.124;5.196;2023-04-03T03:04:14;102998.00;;;15.40
20733;BMP180;10527;52.124;5.196;2023-04-03T03:06:41;102990.00;;;15.40
20733;BMP180;10527;52.124;5.196;2023-04-03T03:09:10;103000.00;;;15.40
20733;BMP180;10527;52.124;5.196;2023-04-03T03:11:39;102999.00;;;15.40
20733;BMP180;10527;52.124;5.196;2023-04-03T03:14:06;102995.00;;;15.30
20733;BMP180;10527;52.124;5.196;2023-04-03T03:16:32;103006.00;;;15.30
20733;BMP180;10527;52.124;5.196;2023-04-03T03:19:01;103003.00;;;15.30
20733;BMP180;10527;52.124;5.196;2023-04-03T03:21:28;103010.00;;;15.30
20733;BMP180;10527;52.124;5.196;2023-04-03T03:23:55;103007.00;;;15.30
20733;BMP180;10527;52.124;5.196;2023-04-03T03:26:21;102997.00;;;15.20
20733;BMP180;10527;52.124;5.196;2023-04-03T03:28:48;103004.00;;;15.20
20733;BMP180;10527;52.124;5.196;2023-04-03T03:31:15;103014.00;;;15.20
20733;BMP180;10527;52.124;5.196;2023-04-03T03:33:42;103005.00;;;15.20
20733;BMP180;10527;52.124;5.196;2023-04-03T03:36:09;103005.00;;;15.10
20733;BMP180;10527;52.124;5.196;2023-04-03T03:38:36;103012.00;;;15.10
20733;BMP180;10527;52.124;5.196;2023-04-03T03:41:03;103008.00;;;15.10
20733;BMP180;10527;52.124;5.196;2023-04-03T03:43:30;103006.00;;;15.10
20733;BMP180;10527;52.124;5.196;2023-04-03T03:45:57;103009.00;;;15.10
20733;BMP180;10527;52.124;5.196;2023-04-03T03:48:24;103017.00;;;15.10
20733;BMP180;10527;52.124;5.196;2023-04-03T03:50:52;103002.00;;;15.00
20733;BMP180;10527;52.124;5.196;2023-04-03T03:53:19;103009.00;;;15.00
20733;BMP180;10527;52.124;5.196;2023-04-03T03:55:46;103010.00;;;15.00
20733;BMP180;10527;52.124;5.196;2023-04-03T03:58:13;103008.00;;;15.00
20733;BMP180;10527;52.124;5.196;2023-04-03T04:00:39;103008.00;;;15.00
20733;BMP180;10527;52.124;5.196;2023-04-03T04:03:07;103013.00;;;15.00
20733;BMP180;10527;52.124;5.196;2023-04-03T04:05:33;103007.00;;;14.90
20733;BMP180;10527;52.124;5.196;2023-04-03T04:08:01;103011.00;;;14.90
20733;BMP180;10527;52.124;5.196;2023-04-03T04:10:28;103017.00;;;14.90
20733;BMP180;10527;52.124;5.196;2023-04-03T04:12:55;103009.00;;;14.90
20733;BMP180;10527;52.124;5.196;2023-04-03T04:15:24;103018.00;;;14.90
20733;BMP180;10527;52.124;5.196;2023-04-03T04:17:52;103016.00;;;14.80
20733;BMP180;10527;52.124;5.196;2023-04-03T04:20:20;103019.00;;;14.80
20733;BMP180;10527;52.124;5.196;2023-04-03T04:22:47;103028.00;;;14.80
20733;BMP180;10527;52.124;5.196;2023-04-03T04:25:13;103028.00;;;14.80
20733;BMP180;10527;52.124;5.196;2023-04-03T04:27:41;103024.00;;;14.80
20733;BMP180;10527;52.124;5.196;2023-04-03T04:30:08;103032.00;;;14.70
20733;BMP180;10527;52.124;5.196;2023-04-03T04:32:36;103026.00;;;14.70
20733;BMP180;10527;52.124;5.196;2023-04-03T04:35:04;103034.00;;;14.70
20733;BMP180;10527;52.124;5.196;2023-04-03T04:37:32;103032.00;;;14.70
20733;BMP180;10527;52.124;5.196;2023-04-03T04:39:59;103020.00;;;14.60
20733;BMP180;10527;52.124;5.196;2023-04-03T04:42:26;103033.00;;;14.60
20733;BMP180;10527;52.124;5.196;2023-04-03T04:44:53;103037.00;;;14.60
20733;BMP180;10527;52.124;5.196;2023-04-03T04:47:20;103039.00;;;14.60
20733;BMP180;10527;52.124;5.196;2023-04-03T04:49:47;103031.00;;;14.60
20733;BMP180;10527;52.124;5.196;2023-04-03T04:52:14;103041.00;;;14.60
20733;BMP180;10527;52.124;5.196;2023-04-03T04:54:41;103041.00;;;14.50
20733;BMP180;10527;52.124;5.196;2023-04-03T04:57:08;103043.00;;;14.50
20733;BMP180;10527;52.124;5.196;2023-04-03T04:59:36;103038.00;;;14.50
20733;BMP180;10527;52.124;5.196;2023-04-03T05:02:03;103041.00;;;14.50
20733;BMP180;10527;52.124;5.196;2023-04-03T05:04:30;103037.00;;;14.50
20733;BMP180;10527;52.124;5.196;2023-04-03T05:06:57;103031.00;;;14.50
20733;BMP180;10527;52.124;5.196;2023-04-03T05:09:25;103031.00;;;14.50
20733;BMP180;10527;52.124;5.196;2023-04-03T05:11:52;103034.00;;;14.50
20733;BMP180;10527;52.124;5.196;2023-04-03T05:14:19;103035.00;;;14.50
20733;BMP180;10527;52.124;5.196;2023-04-03T05:16:46;103042.00;;;14.50
20733;BMP180;10527;52.124;5.196;2023-04-03T05:19:17;103046.00;;;14.50
20733;BMP180;10527;52.124;5.196;2023-04-03T05:21:45;103052.00;;;14.40
20733;BMP180;10527;52.124;5.196;2023-04-03T05:24:14;103064.00;;;14.40
20733;BMP180;10527;52.124;5.196;2023-04-03T05:26:43;103061.00;;;14.40
20733;BMP180;10527;52.124;5.196;2023-04-03T05:29:11;103064.00;;;14.40
20733;BMP180;10527;52.124;5.196;2023-04-03T05:31:37;103071.00;;;14.40
20733;BMP180;10527;52.124;5.196;2023-04-03T05:34:04;103069.00;;;14.30
20733;BMP180;10527;52.124;5.196;2023-04-03T05:36:32;103080.00;;;14.30
20733;BMP180;10527;52.124;5.196;2023-04-03T05:38:59;103066.00;;;14.30
20733;BMP180;10527;52.124;5.196;2023-04-03T05:41:27;103063.00;;;14.30
20733;BMP180;10527;52.124;5.196;2023-04-03T05:43:54;103069.00;;;14.30
20733;BMP180;10527;52.124;5.196;2023-04-03T05:46:20;103072.00;;;14.30
20733;BMP180;10527;52.124;5.196;2023-04-03T05:48:49;103068.00;;;14.30
20733;BMP180;10527;52.124;5.196;2023-04-03T05:51:31;103071.00;;;14.30
20733;BMP180;10527;52.124;5.196;2023-04-03T05:54:27;103081.00;;;14.30
20733;BMP180;10527;52.124;5.196;2023-04-03T05:56:55;103083.00;;;14.30
20733;BMP180;10527;52.124;5.196;2023-04-03T05:59:22;103079.00;;;14.30
20733;BMP180;10527;52.124;5.196;2023-04-03T06:01:49;103084.00;;;14.30
20733;BMP180;10527;52.124;5.196;2023-04-03T06:04:16;103076.00;;;14.20
20733;BMP180;10527;52.124;5.196;2023-04-03T06:06:55;103078.00;;;14.20
20733;BMP180;10527;52.124;5.196;2023-04-03T06:09:25;103072.00;;;14.20
20733;BMP180;10527;52.124;5.196;2023-04-03T06:11:53;103082.00;;;14.20
20733;BMP180;10527;52.124;5.196;2023-04-03T06:14:20;103079.00;;;14.20
20733;BMP180;10527;52.124;5.196;2023-04-03T06:16:47;103084.00;;;14.20
20733;BMP180;10527;52.124;5.196;2023-04-03T06:19:15;103088.00;;;14.20
20733;BMP180;10527;52.124;5.196;2023-04-03T06:21:42;103092.00;;;14.20
20733;BMP180;10527;52.124;5.196;2023-04-03T06:24:14;103093.00;;;14.20
20733;BMP180;10527;52.124;5.196;2023-04-03T06:26:41;103092.00;;;14.20
20733;BMP180;10527;52.124;5.196;2023-04-03T06:29:09;103098.00;;;14.20
20733;BMP180;10527;52.124;5.196;2023-04-03T06:31:36;103097.00;;;14.20
20733;BMP180;10527;52.124;5.196;2023-04-03T06:34:04;103092.00;;;14.30
20733;BMP180;10527;52.124;5.196;2023-04-03T06:36:35;103097.00;;;14.30
20733;BMP180;10527;52.124;5.196;2023-04-03T06:39:02;103098.00;;;14.30
20733;BMP180;10527;52.124;5.196;2023-04-03T06:41:30;103111.00;;;14.30
20733;BMP180;10527;52.124;5.196;2023-04-03T06:43:57;103113.00;;;14.30
20733;BMP180;10527;52.124;5.196;2023-04-03T06:46:26;103114.00;;;14.40
20733;BMP180;10527;52.124;5.196;2023-04-03T06:48:57;103115.00;;;14.40
20733;BMP180;10527;52.124;5.196;2023-04-03T06:51:28;103115.00;;;14.40
20733;BMP180;10527;52.124;5.196;2023-04-03T06:53:58;103116.00;;;14.40
20733;BMP180;10527;52.124;5.196;2023-04-03T06:56:28;103113.00;;;14.40
20733;BMP180;10527;52.124;5.196;2023-04-03T06:58:56;103123.00;;;14.40
20733;BMP180;10527;52.124;5.196;2023-04-03T07:01:27;103128.00;;;14.50
20733;BMP180;10527;52.124;5.196;2023-04-03T07:03:55;103132.00;;;14.50
20733;BMP180;10527;52.124;5.196;2023-04-03T07:06:23;103131.00;;;14.50
20733;BMP180;10527;52.124;5.196;2023-04-03T07:08:54;103132.00;;;14.50
20733;BMP180;10527;52.124;5.196;2023-04-03T07:11:23;103128.00;;;14.50
20733;BMP180;10527;52.124;5.196;2023-04-03T07:13:53;103126.00;;;14.50
20733;BMP180;10527;52.124;5.196;2023-04-03T07:16:20;103140.00;;;14.50
20733;BMP180;10527;52.124;5.196;2023-04-03T07:18:47;103136.00;;;14.60
20733;BMP180;10527;52.124;5.196;2023-04-03T07:21:16;103147.00;;;14.60
20733;BMP180;10527;52.124;5.196;2023-04-03T07:23:43;103148.00;;;14.70
20733;BMP180;10527;52.124;5.196;2023-04-03T07:26:10;103145.00;;;14.70
20733;BMP180;10527;52.124;5.196;2023-04-03T07:28:37;103154.00;;;14.70
20733;BMP180;10527;52.124;5.196;2023-04-03T07:31:09;103153.00;;;14.70
20733;BMP180;10527;52.124;5.196;2023-04-03T07:33:39;103145.00;;;14.70
20733;BMP180;10527;52.124;5.196;2023-04-03T07:36:07;103143.00;;;14.80
20733;BMP180;10527;52.124;5.196;2023-04-03T07:38:36;103140.00;;;14.80
20733;BMP180;10527;52.124;5.196;2023-04-03T07:41:04;103148.00;;;14.80
20733;BMP180;10527;52.124;5.196;2023-04-03T07:43:31;103137.00;;;14.80
20733;BMP180;10527;52.124;5.196;2023-04-03T07:45:58;103139.00;;;14.90
20733;BMP180;10527;52.124;5.196;2023-04-03T07:48:26;103158.00;;;14.90
20733;BMP180;10527;52.124;5.196;2023-04-03T07:50:53;103152.00;;;14.90
20733;BMP180;10527;52.124;5.196;2023-04-03T07:53:20;103155.00;;;14.90
20733;BMP180;10527;52.124;5.196;2023-04-03T07:55:49;103145.00;;;15.00
20733;BMP180;10527;52.124;5.196;2023-04-03T07:58:18;103140.00;;;15.00
20733;BMP180;10527;52.124;5.196;2023-04-03T08:00:46;103151.00;;;15.00
20733;BMP180;10527;52.124;5.196;2023-04-03T08:03:14;103154.00;;;15.10
20733;BMP180;10527;52.124;5.196;2023-04-03T08:05:47;103143.00;;;15.10
20733;BMP180;10527;52.124;5.196;2023-04-03T08:08:17;103153.00;;;15.10
20733;BMP180;10527;52.124;5.196;2023-04-03T08:10:52;103158.00;;;15.20
20733;BMP180;10527;52.124;5.196;2023-04-03T08:13:22;103168.00;;;15.20
20733;BMP180;10527;52.124;5.196;2023-04-03T08:15:51;103168.00;;;15.40
20733;BMP180;10527;52.124;5.196;2023-04-03T08:18:18;103175.00;;;15.70
20733;BMP180;10527;52.124;5.196;2023-04-03T08:20:48;103172.00;;;16.10
20733;BMP180;10527;52.124;5.196;2023-04-03T08:23:15;103174.00;;;16.70
20733;BMP180;10527;52.124;5.196;2023-04-03T08:25:45;103179.00;;;17.40
20733;BMP180;10527;52.124;5.196;2023-04-03T08:28:12;103186.00;;;18.00
20733;BMP180;10527;52.124;5.196;2023-04-03T08:30:41;103183.00;;;18.60
20733;BMP180;10527;52.124;5.196;2023-04-03T08:33:09;103196.00;;;19.20
20733;BMP180;10527;52.124;5.196;2023-04-03T08:35:41;103190.00;;;19.70
20733;BMP180;10527;52.124;5.196;2023-04-03T08:38:12;103190.00;;;20.10
20733;BMP180;10527;52.124;5.196;2023-04-03T08:40:40;103189.00;;;20.50
20733;BMP180;10527;52.124;5.196;2023-04-03T08:43:59;103195.00;;;21.00
20733;BMP180;10527;52.124;5.196;2023-04-03T08:49:25;103199.00;;;21.70
20733;BMP180;10527;52.124;5.196;2023-04-03T08:51:57;103200.00;;;22.00
20733;BMP180;10527;52.124;5.196;2023-04-03T08:54:30;103199.00;;;22.20
20733;BMP180;10527;52.124;5.196;2023-04-03T08:57:04;103189.00;;;22.50
20733;BMP180;10527;52.124;5.196;2023-04-03T08:59:36;103185.00;;;22.70
20733;BMP180;10527;52.124;5.196;2023-04-03T09:02:44;103184.00;;;22.90
20733;BMP180;10527;52.124;5.196;2023-04-03T09:12:04;103187.00;;;23.00
20733;BMP180;10527;52.124;5.196;2023-04-03T09:20:26;103186.00;;;23.20
20733;BMP180;10527;52.124;5.196;2023-04-03T09:22:54;103202.00;;;23.10
20733;BMP180;10527;52.124;5.196;2023-04-03T09:25:29;103193.00;;;23.20
20733;BMP180;10527;52.124;5.196;2023-04-03T09:28:00;103183.00;;;23.10
20733;BMP180;10527;52.124;5.196;2023-04-03T09:30:29;103188.00;;;23.10
20733;BMP180;10527;52.124;5.196;2023-04-03T09:32:57;103181.00;;;23.10
20733;BMP180;10527;52.124;5.196;2023-04-03T09:35:26;103179.00;;;23.00
20733;BMP180;10527;52.124;5.196;2023-04-03T09:41:06;103176.00;;;22.90
20733;BMP180;10527;52.124;5.196;2023-04-03T09:43:37;103171.00;;;22.80
20733;BMP180;10527;52.124;5.196;2023-04-03T09:46:29;103174.00;;;22.70
20733;BMP180;10527;52.124;5.196;2023-04-03T09:49:00;103168.00;;;22.60
20733;BMP180;10527;52.124;5.196;2023-04-03T09:51:37;103167.00;;;22.40
20733;BMP180;10527;52.124;5.196;2023-04-03T09:54:37;103168.00;;;22.30
20733;BMP180;10527;52.124;5.196;2023-04-03T09:57:14;103166.00;;;22.20
20733;BMP180;10527;52.124;5.196;2023-04-03T10:00:04;103164.00;;;22.10
20733;BMP180;10527;52.124;5.196;2023-04-03T10:02:38;103157.00;;;22.10
20733;BMP180;10527;52.124;5.196;2023-04-03T10:05:39;103146.00;;;22.10
20733;BMP180;10527;52.124;5.196;2023-04-03T10:10:47;103141.00;;;21.90
20733;BMP180;10527;52.124;5.196;2023-04-03T10:13:20;103137.00;;;21.80
20733;BMP180;10527;52.124;5.196;2023-04-03T10:16:09;103143.00;;;21.80
20733;BMP180;10527;52.124;5.196;2023-04-03T10:19:02;103133.00;;;21.70
20733;BMP180;10527;52.124;5.196;2023-04-03T10:21:55;103130.00;;;21.60
20733;BMP180;10527;52.124;5.196;2023-04-03T10:27:15;103132.00;;;21.50
20733;BMP180;10527;52.124;5.196;2023-04-03T10:36:25;103119.00;;;21.20
20733;BMP180;10527;52.124;5.196;2023-04-03T10:39:33;103113.00;;;21.10
20733;BMP180;10527;52.124;5.196;2023-04-03T10:51:39;103100.00;;;21.00
20733;BMP180;10527;52.124;5.196;2023-04-03T10:54:16;103108.00;;;21.00
20733;BMP180;10527;52.124;5.196;2023-04-03T10:57:02;103099.00;;;21.00
20733;BMP180;10527;52.124;5.196;2023-04-03T11:00:14;103105.00;;;21.00
20733;BMP180;10527;52.124;5.196;2023-04-03T11:05:41;103096.00;;;21.10
20733;BMP180;10527;52.124;5.196;2023-04-03T11:08:26;103095.00;;;21.20
20733;BMP180;10527;52.124;5.196;2023-04-03T11:11:10;103097.00;;;21.20
20733;BMP180;10527;52.124;5.196;2023-04-03T11:14:02;103091.00;;;21.20
20733;BMP180;10527;52.124;5.196;2023-04-03T11:16:38;103099.00;;;21.10
20733;BMP180;10527;52.124;5.196;2023-04-03T11:19:38;103095.00;;;21.20
20733;BMP180;10527;52.124;5.196;2023-04-03T11:24:54;103104.00;;;21.20
20733;BMP180;10527;52.124;5.196;2023-04-03T11:27:23;103101.00;;;21.30
20733;BMP180;10527;52.124;5.196;2023-04-03T11:29:54;103096.00;;;21.30
20733;BMP180;10527;52.124;5.196;2023-04-03T11:33:05;103094.00;;;21.40
20733;BMP180;10527;52.124;5.196;2023-04-03T11:35:44;103087.00;;;21.40
20733;BMP180;10527;52.124;5.196;2023-04-03T11:38:23;103087.00;;;21.40
20733;BMP180;10527;52.124;5.196;2023-04-03T11:40:51;103085.00;;;21.40
20733;BMP180;10527;52.124;5.196;2023-04-03T11:43:30;103071.00;;;21.50
20733;BMP180;10527;52.124;5.196;2023-04-03T11:46:04;103076.00;;;21.50
20733;BMP180;10527;52.124;5.196;2023-04-03T11:48:53;103072.00;;;21.60
20733;BMP180;10527;52.124;5.196;2023-04-03T12:08:47;103065.00;;;21.90
20733;BMP180;10527;52.124;5.196;2023-04-03T12:11:31;103059.00;;;22.00
20733;BMP180;10527;52.124;5.196;2023-04-03T12:16:42;103039.00;;;22.00
20733;BMP180;10527;52.124;5.196;2023-04-03T12:19:30;103033.00;;;22.10
20733;BMP180;10527;52.124;5.196;2023-04-03T12:22:15;103043.00;;;22.10
20733;BMP180;10527;52.124;5.196;2023-04-03T12:24:47;103033.00;;;22.10
20733;BMP180;10527;52.124;5.196;2023-04-03T12:27:39;103027.00;;;22.20
20733;BMP180;10527;52.124;5.196;2023-04-03T12:30:27;103023.00;;;22.20
20733;BMP180;10527;52.124;5.196;2023-04-03T12:36:33;103009.00;;;22.30
20733;BMP180;10527;52.124;5.196;2023-04-03T12:42:17;103015.00;;;22.40
20733;BMP180;10527;52.124;5.196;2023-04-03T12:47:43;103004.00;;;22.40
20733;BMP180;10527;52.124;5.196;2023-04-03T12:50:22;102999.00;;;22.40
20733;BMP180;10527;52.124;5.196;2023-04-03T12:53:06;103003.00;;;22.50
20733;BMP180;10527;52.124;5.196;2023-04-03T12:55:33;103009.00;;;22.50
20733;BMP180;10527;52.124;5.196;2023-04-03T12:58:24;103012.00;;;22.50
20733;BMP180;10527;52.124;5.196;2023-04-03T13:01:12;102989.00;;;22.50
20733;BMP180;10527;52.124;5.196;2023-04-03T13:03:47;102990.00;;;22.50
20733;BMP180;10527;52.124;5.196;2023-04-03T13:06:21;102978.00;;;22.50
20733;BMP180;10527;52.124;5.196;2023-04-03T13:08:59;102987.00;;;22.50
20733;BMP180;10527;52.124;5.196;2023-04-03T13:11:36;102990.00;;;22.60
20733;BMP180;10527;52.124;5.196;2023-04-03T13:14:25;102977.00;;;22.60
20733;BMP180;10527;52.124;5.196;2023-04-03T13:17:11;102965.00;;;22.70
20733;BMP180;10527;52.124;5.196;2023-04-03T13:19:39;102977.00;;;22.70
20733;BMP180;10527;52.124;5.196;2023-04-03T13:22:26;102976.00;;;22.80
20733;BMP180;10527;52.124;5.196;2023-04-03T13:24:56;102978.00;;;22.80
20733;BMP180;10527;52.124;5.196;2023-04-03T13:27:26;102965.00;;;22.80
20733;BMP180;10527;52.124;5.196;2023-04-03T13:29:57;102962.00;;;22.90
20733;BMP180;10527;52.124;5.196;2023-04-03T13:32:27;102976.00;;;22.90
20733;BMP180;10527;52.124;5.196;2023-04-03T13:34:55;102961.00;;;23.00
20733;BMP180;10527;52.124;5.196;2023-04-03T13:37:33;102968.00;;;23.00
20733;BMP180;10527;52.124;5.196;2023-04-03T13:42:37;102969.00;;;23.10
20733;BMP180;10527;52.124;5.196;2023-04-03T13:47:48;102977.00;;;23.20
20733;BMP180;10527;52.124;5.196;2023-04-03T13:50:23;102980.00;;;23.20
20733;BMP180;10527;52.124;5.196;2023-04-03T13:53:11;102972.00;;;23.20
20733;BMP180;10527;52.124;5.196;2023-04-03T13:58:33;102962.00;;;23.30
20733;BMP180;10527;52.124;5.196;2023-04-03T14:01:22;102973.00;;;23.30
20733;BMP180;10527;52.124;5.196;2023-04-03T14:06:23;102958.00;;;23.40
20733;BMP180;10527;52.124;5.196;2023-04-03T14:08:53;102959.00;;;23.40
20733;BMP180;10527;52.124;5.196;2023-04-03T14:11:28;102953.00;;;23.40
20733;BMP180;10527;52.124;5.196;2023-04-03T14:14:00;102954.00;;;23.40
20733;BMP180;10527;52.124;5.196;2023-04-03T14:16:32;102952.00;;;23.40
20733;BMP180;10527;52.124;5.196;2023-04-03T14:19:03;102954.00;;;23.40
20733;BMP180;10527;52.124;5.196;2023-04-03T14:21:30;102955.00;;;23.40
20733;BMP180;10527;52.124;5.196;2023-04-03T14:23:57;102948.00;;;23.40
20733;BMP180;10527;52.124;5.196;2023-04-03T14:26:25;102939.00;;;23.40
20733;BMP180;10527;52.124;5.196;2023-04-03T14:28:54;102936.00;;;23.40
20733;BMP180;10527;52.124;5.196;2023-04-03T14:31:22;102932.00;;;23.40
20733;BMP180;10527;52.124;5.196;2023-04-03T14:33:50;102931.00;;;23.40
20733;BMP180;10527;52.124;5.196;2023-04-03T14:36:25;102924.00;;;23.40
20733;BMP180;10527;52.124;5.196;2023-04-03T14:38:53;102932.00;;;23.40
20733;BMP180;10527;52.124;5.196;2023-04-03T14:41:24;102924.00;;;23.50
20733;BMP180;10527;52.124;5.196;2023-04-03T14:43:52;102920.00;;;23.50
20733;BMP180;10527;52.124;5.196;2023-04-03T14:46:26;102927.00;;;23.60
20733;BMP180;10527;52.124;5.196;2023-04-03T14:49:21;102925.00;;;23.60
20733;BMP180;10527;52.124;5.196;2023-04-03T14:51:57;102918.00;;;23.70
20733;BMP180;10527;52.124;5.196;2023-04-03T14:54:25;102923.00;;;23.70
20733;BMP180;10527;52.124;5.196;2023-04-03T14:56:58;102920.00;;;23.70
20733;BMP180;10527;52.124;5.196;2023-04-03T14:59:27;102919.00;;;23.70
20733;BMP180;10527;52.124;5.196;2023-04-03T15:01:54;102922.00;;;23.70
20733;BMP180;10527;52.124;5.196;2023-04-03T15:04:21;102912.00;;;23.70
20733;BMP180;10527;52.124;5.196;2023-04-03T15:06:49;102913.00;;;23.70
20733;BMP180;10527;52.124;5.196;2023-04-03T15:09:20;102909.00;;;23.80
20733;BMP180;10527;52.124;5.196;2023-04-03T15:11:49;102917.00;;;23.80
20733;BMP180;10527;52.124;5.196;2023-04-03T15:14:17;102915.00;;;23.80
20733;BMP180;10527;52.124;5.196;2023-04-03T15:17:04;102914.00;;;23.90
20733;BMP180;10527;52.124;5.196;2023-04-03T15:19:39;102925.00;;;23.90
20733;BMP180;10527;52.124;5.196;2023-04-03T15:22:06;102913.00;;;23.90
20733;BMP180;10527;52.124;5.196;2023-04-03T15:24:33;102917.00;;;23.90
20733;BMP180;10527;52.124;5.196;2023-04-03T15:27:01;102918.00;;;23.80
20733;BMP180;10527;52.124;5.196;2023-04-03T15:29:28;102925.00;;;23.80
20733;BMP180;10527;52.124;5.196;2023-04-03T15:31:55;102922.00;;;23.80
20733;BMP180;10527;52.124;5.196;2023-04-03T15:34:22;102910.00;;;23.90
20733;BMP180;10527;52.124;5.196;2023-04-03T15:36:50;102921.00;;;23.90
20733;BMP180;10527;52.124;5.196;2023-04-03T15:39:20;102918.00;;;23.90
20733;BMP180;10527;52.124;5.196;2023-04-03T15:41:47;102913.00;;;24.00
20733;BMP180;10527;52.124;5.196;2023-04-03T15:44:14;102905.00;;;24.00
20733;BMP180;10527;52.124;5.196;2023-04-03T15:46:48;102917.00;;;24.00
20733;BMP180;10527;52.124;5.196;2023-04-03T15:49:20;102914.00;;;24.00
20733;BMP180;10527;52.124;5.196;2023-04-03T15:51:50;102915.00;;;24.00
20733;BMP180;10527;52.124;5.196;2023-04-03T15:54:17;102905.00;;;24.00
20733;BMP180;10527;52.124;5.196;2023-04-03T15:56:44;102918.00;;;24.00
20733;BMP180;10527;52.124;5.196;2023-04-03T15:59:11;102925.00;;;24.10
20733;BMP180;10527;52.124;5.196;2023-04-03T16:01:39;102917.00;;;24.10